Strona główna
METAR-TAF:

METAR-TAF

Lotnisko :

Youngstown / Warren, Ohio, Stany Zjednoczone

Szerokość geograficzna: 41-15-16N, Długość geograficzna: 080-40-26W, wysokość: 364 m

Aktualna obserwacja pogody

Raport powstał 39 minut temu, godzina 03:51 UTC
Cisza
Temperatura 6°C
Wilgotność 81%
Ciśnienie 1026 hPa
Widzialność: 16.1 km
Mało chmury na wysokości 23000 ft

METAR: KYNG 010351Z 00000KT 10SM FEW230 06/03 A3030 RMK AO2 SLP265 T00610033 $

czas: 00:30 (04:30 UTC)

Prognoza

Raport powstał 5 godziny i 10 minut temu, godzina 23:20 UTC
Prognoza ważna od 01 godzina 00 UTC do 01 godzina 24 UTC
Wiatr 6 kt od północno-północny zachód
Widzialność: 10 km
bezchmurnie
Od 01 godzina 0300 UTC
Wiatr 3 kt z kierunków zmiennych
Widzialność: 10 km
bezchmurnie
Od 01 godzina 1400 UTC
Wiatr 7 kt od zachodnio-południowy zachód
Widzialność: 10 km
Przerywane chmury na wysokości 25000 ft

TAF: KYNG 312320Z 0100/0124 34006KT P6SM SKC FM010300 VRB03KT P6SM SKC FM011400 25007KT P6SM BKN250

Obserwacja i prognoza pogody dla ponad 4000 lotnisk (raport METAR i TAF).

Dostępne stacje oznaczono żółtymi i czerwonymi punktami na mapie.

Najedź kursorem aby zobaczyć nazwę stacji.

Kliknij aby zobaczyć obserwacje i prognozy pogody.

Aby zmienić mapę: kliknij na zielony przycisk z czarnym krzyżykiem, aby powiększyć; na zielony przycisk z myślnikiem, aby pomniejszyć; na zielone strzałki, aby przejść do map sąsiednich.


METAR-TAF: